GLO1756 SBPV-SBEG
Flight info
| Callsign | GLO1756 |
|---|---|
| Flight time | 1h 6m |
| Altitude | 37000 |
| Route | MUPEG UZ74 IGAPO |
| Aircraft | B738/M-SDFGIKLORWXY/LB1 |
Departure
| Time | 2026-04-19 20:12 |
|---|---|
| Airport | Governador Jorge Teixeira de Oliveira International Airport (SBPV) |
Arrival
| Time | 2026-04-19 21:18 |
|---|---|
| Airport | Eduardo Gomes International Airport (SBEG) |
| Time | Latitude | Longitude | Altitude | Speed | Heading |
|---|---|---|---|---|---|
| 2026-04-19 19:42 | -8.71460 | -63.89929 | 299 ft | 0 kts | 86° |
| 2026-04-19 20:00 | -8.71461 | -63.89953 | 298 ft | 4 kts | 86° |
| 2026-04-19 20:00 | -8.71463 | -63.89980 | 298 ft | 4 kts | 86° |
| 2026-04-19 20:00 | -8.71465 | -63.90008 | 298 ft | 4 kts | 86° |
| 2026-04-19 20:00 | -8.71466 | -63.90035 | 298 ft | 3 kts | 86° |
| 2026-04-19 20:01 | -8.71470 | -63.90054 | 300 ft | 4 kts | 32° |
| 2026-04-19 20:01 | -8.71491 | -63.90055 | 301 ft | 4 kts | 345° |
| 2026-04-19 20:01 | -8.71511 | -63.90050 | 300 ft | 0 kts | 356° |
| 2026-04-19 20:06 | -8.71508 | -63.90051 | 300 ft | 3 kts | 356° |
| 2026-04-19 20:06 | -8.71471 | -63.90053 | 300 ft | 6 kts | 356° |
| 2026-04-19 20:06 | -8.71431 | -63.90060 | 300 ft | 6 kts | 332° |
| 2026-04-19 20:06 | -8.71419 | -63.90096 | 299 ft | 6 kts | 263° |
| 2026-04-19 20:07 | -8.71424 | -63.90137 | 299 ft | 6 kts | 263° |
| 2026-04-19 20:07 | -8.71429 | -63.90177 | 303 ft | 6 kts | 252° |
| 2026-04-19 20:07 | -8.71465 | -63.90190 | 301 ft | 6 kts | 190° |
| 2026-04-19 20:07 | -8.71503 | -63.90194 | 299 ft | 6 kts | 175° |
| 2026-04-19 20:08 | -8.71547 | -63.90192 | 298 ft | 9 kts | 178° |
| 2026-04-19 20:08 | -8.71633 | -63.90188 | 300 ft | 13 kts | 176° |
| 2026-04-19 20:08 | -8.71723 | -63.90182 | 298 ft | 13 kts | 176° |
| 2026-04-19 20:08 | -8.71810 | -63.90177 | 301 ft | 12 kts | 176° |
| 2026-04-19 20:09 | -8.71895 | -63.90171 | 301 ft | 12 kts | 176° |
| 2026-04-19 20:09 | -8.71956 | -63.90160 | 299 ft | 5 kts | 150° |
| 2026-04-19 20:09 | -8.71978 | -63.90138 | 298 ft | 4 kts | 155° |
| 2026-04-19 20:09 | -8.71998 | -63.90155 | 298 ft | 3 kts | 255° |
| 2026-04-19 20:10 | -8.71990 | -63.90170 | 298 ft | 2 kts | 333° |
| 2026-04-19 20:10 | -8.71975 | -63.90168 | 298 ft | 2 kts | 6° |
| 2026-04-19 20:10 | -8.71968 | -63.90169 | 299 ft | 0 kts | 356° |
| 2026-04-19 20:11 | -8.71964 | -63.90169 | 299 ft | 7 kts | 356° |
| 2026-04-19 20:12 | -8.71650 | -63.90187 | 299 ft | 83 kts | 356° |
| 2026-04-19 20:12 | -8.70841 | -63.90234 | 302 ft | 147 kts | 357° |
| 2026-04-19 20:12 | -8.69702 | -63.90293 | 788 ft | 169 kts | 358° |
| 2026-04-19 20:12 | -8.68482 | -63.90373 | 1576 ft | 182 kts | 354° |
| 2026-04-19 20:13 | -8.67208 | -63.90503 | 2613 ft | 185 kts | 353° |
| 2026-04-19 20:13 | -8.65947 | -63.90606 | 3783 ft | 178 kts | 356° |
| 2026-04-19 20:13 | -8.64683 | -63.90684 | 4523 ft | 194 kts | 359° |
| 2026-04-19 20:13 | -8.63322 | -63.90244 | 4734 ft | 223 kts | 34° |
| 2026-04-19 20:14 | -8.62033 | -63.89214 | 4993 ft | 249 kts | 37° |
| 2026-04-19 20:14 | -8.60612 | -63.88059 | 5346 ft | 272 kts | 37° |
| 2026-04-19 20:14 | -8.59118 | -63.86836 | 6125 ft | 278 kts | 38° |
| 2026-04-19 20:14 | -8.57605 | -63.85595 | 6950 ft | 281 kts | 38° |
| 2026-04-19 20:15 | -8.56595 | -63.84766 | 7473 ft | 284 kts | 37° |
| 2026-04-19 20:15 | -8.54523 | -63.83067 | 8507 ft | 290 kts | 38° |
| 2026-04-19 20:15 | -8.52966 | -63.81791 | 9275 ft | 295 kts | 38° |
| 2026-04-19 20:15 | -8.51356 | -63.80472 | 10020 ft | 300 kts | 38° |
| 2026-04-19 20:16 | -8.49732 | -63.79143 | 10809 ft | 301 kts | 38° |
| 2026-04-19 20:16 | -8.48118 | -63.77821 | 11744 ft | 295 kts | 38° |
| 2026-04-19 20:16 | -8.46489 | -63.76487 | 12182 ft | 312 kts | 37° |
| 2026-04-19 20:16 | -8.44731 | -63.75050 | 12364 ft | 335 kts | 38° |
| 2026-04-19 20:17 | -8.42880 | -63.73537 | 12869 ft | 344 kts | 38° |
| 2026-04-19 20:17 | -8.41016 | -63.72011 | 13684 ft | 346 kts | 38° |
| 2026-04-19 20:17 | -8.39130 | -63.70468 | 14309 ft | 351 kts | 38° |
| 2026-04-19 20:17 | -8.37219 | -63.68904 | 15040 ft | 354 kts | 38° |
| 2026-04-19 20:18 | -8.35292 | -63.67328 | 15680 ft | 360 kts | 38° |
| 2026-04-19 20:18 | -8.33361 | -63.65748 | 16304 ft | 362 kts | 38° |
| 2026-04-19 20:18 | -8.31392 | -63.64138 | 16917 ft | 365 kts | 39° |
| 2026-04-19 20:18 | -8.29403 | -63.62512 | 17500 ft | 369 kts | 39° |
| 2026-04-19 20:19 | -8.27400 | -63.60875 | 18110 ft | 372 kts | 39° |
| 2026-04-19 20:19 | -8.25365 | -63.59236 | 18591 ft | 376 kts | 37° |
| 2026-04-19 20:19 | -8.23226 | -63.57713 | 19114 ft | 378 kts | 34° |
| 2026-04-19 20:19 | -8.21022 | -63.56244 | 19623 ft | 381 kts | 33° |
| 2026-04-19 20:20 | -8.18786 | -63.54779 | 20114 ft | 383 kts | 33° |
| 2026-04-19 20:20 | -8.16573 | -63.53326 | 20617 ft | 386 kts | 33° |
| 2026-04-19 20:20 | -8.14317 | -63.51832 | 21075 ft | 389 kts | 33° |
| 2026-04-19 20:20 | -8.12050 | -63.50322 | 21577 ft | 392 kts | 34° |
| 2026-04-19 20:21 | -8.09771 | -63.48795 | 22015 ft | 395 kts | 34° |
| 2026-04-19 20:21 | -8.07469 | -63.47249 | 22513 ft | 397 kts | 34° |
| 2026-04-19 20:21 | -8.05163 | -63.45699 | 22943 ft | 401 kts | 34° |
| 2026-04-19 20:21 | -8.02832 | -63.44131 | 23390 ft | 403 kts | 34° |
| 2026-04-19 20:22 | -8.00493 | -63.42558 | 23803 ft | 404 kts | 34° |
| 2026-04-19 20:22 | -7.98160 | -63.40990 | 24169 ft | 407 kts | 34° |
| 2026-04-19 20:22 | -7.95800 | -63.39403 | 24542 ft | 409 kts | 34° |
| 2026-04-19 20:22 | -7.93416 | -63.37801 | 24867 ft | 412 kts | 34° |
| 2026-04-19 20:23 | -7.91832 | -63.36736 | 25152 ft | 412 kts | 34° |
| 2026-04-19 20:23 | -7.89438 | -63.35128 | 25541 ft | 415 kts | 34° |
| 2026-04-19 20:23 | -7.86239 | -63.32979 | 26025 ft | 418 kts | 34° |
| 2026-04-19 20:23 | -7.83813 | -63.31350 | 26397 ft | 420 kts | 34° |
| 2026-04-19 20:24 | -7.82165 | -63.30244 | 26634 ft | 422 kts | 34° |
| 2026-04-19 20:24 | -7.79738 | -63.28614 | 27003 ft | 424 kts | 34° |
| 2026-04-19 20:24 | -7.77272 | -63.26959 | 27322 ft | 426 kts | 34° |
| 2026-04-19 20:24 | -7.74796 | -63.25296 | 27642 ft | 429 kts | 34° |
| 2026-04-19 20:25 | -7.72306 | -63.23625 | 27970 ft | 431 kts | 34° |
| 2026-04-19 20:25 | -7.69807 | -63.21947 | 28299 ft | 433 kts | 34° |
| 2026-04-19 20:25 | -7.67288 | -63.20256 | 28608 ft | 435 kts | 34° |
| 2026-04-19 20:25 | -7.64762 | -63.18561 | 28910 ft | 437 kts | 34° |
| 2026-04-19 20:26 | -7.62225 | -63.16858 | 29232 ft | 439 kts | 34° |
| 2026-04-19 20:26 | -7.59669 | -63.15143 | 29538 ft | 441 kts | 34° |
| 2026-04-19 20:26 | -7.57111 | -63.13426 | 29831 ft | 443 kts | 34° |
| 2026-04-19 20:26 | -7.54530 | -63.11695 | 30054 ft | 446 kts | 34° |
| 2026-04-19 20:27 | -7.51939 | -63.09958 | 30268 ft | 449 kts | 34° |
| 2026-04-19 20:27 | -7.49335 | -63.08214 | 30520 ft | 450 kts | 34° |
| 2026-04-19 20:27 | -7.46725 | -63.06471 | 30794 ft | 450 kts | 34° |
| 2026-04-19 20:27 | -7.44143 | -63.04748 | 31045 ft | 452 kts | 34° |
| 2026-04-19 20:28 | -7.41510 | -63.02992 | 31223 ft | 455 kts | 34° |
| 2026-04-19 20:28 | -7.38865 | -63.01227 | 31438 ft | 456 kts | 34° |
| 2026-04-19 20:28 | -7.36210 | -62.99455 | 31689 ft | 457 kts | 34° |
| 2026-04-19 20:28 | -7.33556 | -62.97684 | 31934 ft | 458 kts | 34° |
| 2026-04-19 20:29 | -7.30892 | -62.95906 | 32171 ft | 459 kts | 34° |
| 2026-04-19 20:29 | -7.28230 | -62.94129 | 32392 ft | 460 kts | 34° |
| 2026-04-19 20:29 | -7.25558 | -62.92347 | 32673 ft | 460 kts | 34° |
| 2026-04-19 20:30 | -7.20278 | -62.88825 | 33397 ft | 455 kts | 34° |
| 2026-04-19 20:30 | -7.17643 | -62.87068 | 33754 ft | 454 kts | 35° |
| 2026-04-19 20:30 | -7.15010 | -62.85312 | 34036 ft | 453 kts | 35° |
| 2026-04-19 20:30 | -7.12381 | -62.83558 | 34278 ft | 453 kts | 35° |
| 2026-04-19 20:31 | -7.09745 | -62.81801 | 34520 ft | 453 kts | 35° |
| 2026-04-19 20:31 | -7.07113 | -62.80046 | 34749 ft | 453 kts | 35° |
| 2026-04-19 20:31 | -7.04482 | -62.78292 | 35002 ft | 453 kts | 35° |
| 2026-04-19 20:31 | -7.01856 | -62.76542 | 35283 ft | 451 kts | 35° |
| 2026-04-19 20:32 | -6.99256 | -62.74809 | 35551 ft | 450 kts | 35° |
| 2026-04-19 20:32 | -6.96682 | -62.73094 | 35790 ft | 450 kts | 35° |
| 2026-04-19 20:32 | -6.94070 | -62.71354 | 36029 ft | 450 kts | 35° |
| 2026-04-19 20:32 | -6.91466 | -62.69614 | 36285 ft | 449 kts | 36° |
| 2026-04-19 20:33 | -6.88863 | -62.67867 | 36540 ft | 448 kts | 36° |
| 2026-04-19 20:33 | -6.86272 | -62.66127 | 36788 ft | 447 kts | 36° |
| 2026-04-19 20:33 | -6.81063 | -62.62626 | 36845 ft | 452 kts | 36° |
| 2026-04-19 20:34 | -6.75835 | -62.59118 | 36837 ft | 449 kts | 36° |
| 2026-04-19 20:34 | -6.70645 | -62.55637 | 36857 ft | 448 kts | 36° |
| 2026-04-19 20:35 | -6.65490 | -62.52180 | 36844 ft | 448 kts | 36° |
| 2026-04-19 20:35 | -6.60290 | -62.48692 | 36833 ft | 449 kts | 36° |
| 2026-04-19 20:36 | -6.55087 | -62.45204 | 36850 ft | 449 kts | 36° |
| 2026-04-19 20:36 | -6.49881 | -62.41722 | 36848 ft | 449 kts | 36° |
| 2026-04-19 20:37 | -6.44658 | -62.38267 | 36835 ft | 449 kts | 35° |
| 2026-04-19 20:37 | -6.39432 | -62.34816 | 36841 ft | 449 kts | 35° |
| 2026-04-19 20:38 | -6.34217 | -62.31370 | 36836 ft | 449 kts | 35° |
| 2026-04-19 20:38 | -6.29002 | -62.27921 | 36854 ft | 448 kts | 35° |
| 2026-04-19 20:39 | -6.23838 | -62.24505 | 36846 ft | 447 kts | 35° |
| 2026-04-19 20:39 | -6.18648 | -62.21073 | 36835 ft | 446 kts | 35° |
| 2026-04-19 20:40 | -6.13458 | -62.17643 | 36849 ft | 446 kts | 35° |
| 2026-04-19 20:40 | -6.08282 | -62.14222 | 36853 ft | 445 kts | 35° |
| 2026-04-19 20:41 | -6.03099 | -62.10797 | 36852 ft | 445 kts | 35° |
| 2026-04-19 20:41 | -5.97932 | -62.07384 | 36844 ft | 445 kts | 35° |
| 2026-04-19 20:42 | -5.92739 | -62.03955 | 36846 ft | 445 kts | 35° |
| 2026-04-19 20:42 | -5.87568 | -62.00540 | 36850 ft | 445 kts | 35° |
| 2026-04-19 20:43 | -5.82476 | -61.97179 | 36842 ft | 445 kts | 35° |
| 2026-04-19 20:43 | -5.77333 | -61.93784 | 36845 ft | 445 kts | 35° |
| 2026-04-19 20:44 | -5.72149 | -61.90363 | 36840 ft | 446 kts | 35° |
| 2026-04-19 20:44 | -5.66966 | -61.86943 | 36848 ft | 447 kts | 34° |
| 2026-04-19 20:45 | -5.61762 | -61.83510 | 36842 ft | 448 kts | 34° |
| 2026-04-19 20:45 | -5.56405 | -61.80247 | 36845 ft | 451 kts | 30° |
| 2026-04-19 20:46 | -5.50820 | -61.77323 | 36848 ft | 453 kts | 28° |
| 2026-04-19 20:46 | -5.45197 | -61.74406 | 36851 ft | 455 kts | 29° |
| 2026-04-19 20:47 | -5.39591 | -61.71440 | 36837 ft | 456 kts | 29° |
| 2026-04-19 20:47 | -5.34017 | -61.68457 | 36845 ft | 457 kts | 30° |
| 2026-04-19 20:48 | -5.28405 | -61.65446 | 36841 ft | 457 kts | 30° |
| 2026-04-19 20:48 | -5.22792 | -61.62436 | 36842 ft | 457 kts | 30° |
| 2026-04-19 20:49 | -5.17188 | -61.59433 | 36841 ft | 457 kts | 30° |
| 2026-04-19 20:49 | -5.11589 | -61.56433 | 36840 ft | 456 kts | 30° |
| 2026-04-19 20:50 | -5.05994 | -61.53437 | 36842 ft | 455 kts | 30° |
| 2026-04-19 20:50 | -5.00413 | -61.50448 | 36833 ft | 454 kts | 30° |
| 2026-04-19 20:51 | -4.97628 | -61.48958 | 36659 ft | 457 kts | 30° |
| 2026-04-19 20:51 | -4.94816 | -61.47451 | 36237 ft | 457 kts | 30° |
| 2026-04-19 20:51 | -4.92029 | -61.45960 | 35838 ft | 452 kts | 30° |
| 2026-04-19 20:51 | -4.89259 | -61.44478 | 35431 ft | 449 kts | 30° |
| 2026-04-19 20:52 | -4.86513 | -61.43009 | 35018 ft | 446 kts | 30° |
| 2026-04-19 20:52 | -4.83795 | -61.41555 | 34753 ft | 439 kts | 30° |
| 2026-04-19 20:52 | -4.81093 | -61.40109 | 34534 ft | 445 kts | 29° |
| 2026-04-19 20:52 | -4.78362 | -61.38646 | 34316 ft | 456 kts | 29° |
| 2026-04-19 20:53 | -4.75504 | -61.37115 | 34119 ft | 464 kts | 29° |
| 2026-04-19 20:53 | -4.72639 | -61.35582 | 33889 ft | 467 kts | 29° |
| 2026-04-19 20:53 | -4.69778 | -61.34052 | 33632 ft | 465 kts | 29° |
| 2026-04-19 20:53 | -4.66955 | -61.32543 | 33381 ft | 465 kts | 29° |
| 2026-04-19 20:54 | -4.64105 | -61.31020 | 33124 ft | 464 kts | 29° |
| 2026-04-19 20:54 | -4.61256 | -61.29497 | 32875 ft | 463 kts | 29° |
| 2026-04-19 20:54 | -4.58413 | -61.27977 | 32469 ft | 462 kts | 29° |
| 2026-04-19 20:54 | -4.55576 | -61.26460 | 31926 ft | 459 kts | 29° |
| 2026-04-19 20:55 | -4.52768 | -61.24959 | 31457 ft | 456 kts | 29° |
| 2026-04-19 20:55 | -4.49980 | -61.23469 | 30988 ft | 452 kts | 29° |
| 2026-04-19 20:55 | -4.47201 | -61.21984 | 30499 ft | 450 kts | 29° |
| 2026-04-19 20:55 | -4.44442 | -61.20510 | 30019 ft | 448 kts | 29° |
| 2026-04-19 20:56 | -4.41698 | -61.19043 | 29477 ft | 445 kts | 29° |
| 2026-04-19 20:56 | -4.38978 | -61.17590 | 28958 ft | 441 kts | 29° |
| 2026-04-19 20:56 | -4.36277 | -61.16146 | 28449 ft | 438 kts | 29° |
| 2026-04-19 20:56 | -4.33606 | -61.14719 | 27969 ft | 434 kts | 29° |
| 2026-04-19 20:57 | -4.30982 | -61.13318 | 27486 ft | 431 kts | 29° |
| 2026-04-19 20:57 | -4.28341 | -61.11907 | 27012 ft | 427 kts | 29° |
| 2026-04-19 20:57 | -4.25730 | -61.10512 | 26538 ft | 424 kts | 29° |
| 2026-04-19 20:57 | -4.23124 | -61.09120 | 26071 ft | 422 kts | 29° |
| 2026-04-19 20:58 | -4.20542 | -61.07741 | 25583 ft | 420 kts | 29° |
| 2026-04-19 20:58 | -4.17971 | -61.06367 | 25113 ft | 417 kts | 29° |
| 2026-04-19 20:58 | -4.15412 | -61.05001 | 24632 ft | 416 kts | 29° |
| 2026-04-19 20:58 | -4.12864 | -61.03640 | 24160 ft | 414 kts | 29° |
| 2026-04-19 20:59 | -4.10326 | -61.02285 | 23691 ft | 412 kts | 29° |
| 2026-04-19 20:59 | -4.07799 | -61.00936 | 23181 ft | 411 kts | 28° |
| 2026-04-19 20:59 | -4.05410 | -60.99660 | 22690 ft | 409 kts | 28° |
| 2026-04-19 20:59 | -4.02908 | -60.98325 | 22211 ft | 405 kts | 29° |
| 2026-04-19 21:00 | -4.00427 | -60.97001 | 21737 ft | 402 kts | 29° |
| 2026-04-19 21:00 | -3.97969 | -60.95689 | 21290 ft | 399 kts | 28° |
| 2026-04-19 21:00 | -3.95524 | -60.94384 | 20831 ft | 396 kts | 28° |
| 2026-04-19 21:00 | -3.93103 | -60.93092 | 20391 ft | 393 kts | 28° |
| 2026-04-19 21:01 | -3.90700 | -60.91809 | 19930 ft | 391 kts | 28° |
| 2026-04-19 21:01 | -3.88306 | -60.90531 | 19472 ft | 389 kts | 28° |
| 2026-04-19 21:01 | -3.85916 | -60.89256 | 19014 ft | 387 kts | 28° |
| 2026-04-19 21:01 | -3.83538 | -60.87987 | 18566 ft | 386 kts | 28° |
| 2026-04-19 21:02 | -3.81181 | -60.86729 | 18115 ft | 384 kts | 28° |
| 2026-04-19 21:02 | -3.78853 | -60.85487 | 17619 ft | 382 kts | 28° |
| 2026-04-19 21:02 | -3.76508 | -60.84235 | 17164 ft | 379 kts | 28° |
| 2026-04-19 21:02 | -3.74191 | -60.83000 | 16721 ft | 376 kts | 28° |
| 2026-04-19 21:03 | -3.71893 | -60.81774 | 16278 ft | 373 kts | 27° |
| 2026-04-19 21:03 | -3.69657 | -60.80473 | 15845 ft | 371 kts | 33° |
| 2026-04-19 21:03 | -3.67569 | -60.78971 | 15429 ft | 368 kts | 37° |
| 2026-04-19 21:03 | -3.65546 | -60.77411 | 14986 ft | 366 kts | 37° |
| 2026-04-19 21:04 | -3.63542 | -60.75849 | 14556 ft | 364 kts | 37° |
| 2026-04-19 21:04 | -3.61535 | -60.74300 | 14120 ft | 363 kts | 37° |
| 2026-04-19 21:04 | -3.59535 | -60.72776 | 13691 ft | 362 kts | 36° |
| 2026-04-19 21:04 | -3.57525 | -60.71259 | 13220 ft | 360 kts | 36° |
| 2026-04-19 21:05 | -3.55527 | -60.69759 | 12771 ft | 357 kts | 36° |
| 2026-04-19 21:05 | -3.53545 | -60.68276 | 12354 ft | 354 kts | 36° |
| 2026-04-19 21:05 | -3.51575 | -60.66805 | 11934 ft | 352 kts | 36° |
| 2026-04-19 21:05 | -3.49643 | -60.65364 | 11523 ft | 349 kts | 36° |
| 2026-04-19 21:06 | -3.47706 | -60.63918 | 11110 ft | 346 kts | 36° |
| 2026-04-19 21:06 | -3.45778 | -60.62479 | 10705 ft | 344 kts | 36° |
| 2026-04-19 21:06 | -3.43864 | -60.61050 | 10362 ft | 340 kts | 36° |
| 2026-04-19 21:06 | -3.41995 | -60.59654 | 10192 ft | 331 kts | 36° |
| 2026-04-19 21:07 | -3.40179 | -60.58300 | 10052 ft | 321 kts | 36° |
| 2026-04-19 21:07 | -3.38411 | -60.56981 | 9905 ft | 312 kts | 36° |
| 2026-04-19 21:07 | -3.36704 | -60.55707 | 9640 ft | 300 kts | 36° |
| 2026-04-19 21:07 | -3.35053 | -60.54474 | 9297 ft | 292 kts | 36° |
| 2026-04-19 21:08 | -3.33441 | -60.53270 | 9000 ft | 289 kts | 36° |
| 2026-04-19 21:08 | -3.32374 | -60.52474 | 8801 ft | 288 kts | 36° |
| 2026-04-19 21:08 | -3.30247 | -60.50885 | 8393 ft | 287 kts | 36° |
| 2026-04-19 21:08 | -3.28648 | -60.49692 | 8100 ft | 286 kts | 36° |
| 2026-04-19 21:09 | -3.27053 | -60.48501 | 7806 ft | 285 kts | 36° |
| 2026-04-19 21:09 | -3.25468 | -60.47318 | 7512 ft | 284 kts | 36° |
| 2026-04-19 21:09 | -3.24420 | -60.46538 | 7317 ft | 283 kts | 36° |
| 2026-04-19 21:09 | -3.22841 | -60.45362 | 7023 ft | 283 kts | 36° |
| 2026-04-19 21:10 | -3.21264 | -60.44188 | 6716 ft | 282 kts | 36° |
| 2026-04-19 21:10 | -3.19687 | -60.43013 | 6406 ft | 282 kts | 36° |
| 2026-04-19 21:10 | -3.18112 | -60.41841 | 6089 ft | 282 kts | 36° |
| 2026-04-19 21:10 | -3.16538 | -60.40668 | 5778 ft | 282 kts | 36° |
| 2026-04-19 21:11 | -3.14970 | -60.39500 | 5462 ft | 278 kts | 36° |
| 2026-04-19 21:11 | -3.13432 | -60.38354 | 5165 ft | 273 kts | 36° |
| 2026-04-19 21:11 | -3.11911 | -60.37221 | 4938 ft | 270 kts | 36° |
| 2026-04-19 21:11 | -3.10414 | -60.36106 | 4695 ft | 268 kts | 36° |
| 2026-04-19 21:12 | -3.08923 | -60.34995 | 4422 ft | 267 kts | 36° |
| 2026-04-19 21:12 | -3.07452 | -60.33899 | 4294 ft | 259 kts | 36° |
| 2026-04-19 21:12 | -3.06023 | -60.32834 | 4168 ft | 253 kts | 36° |
| 2026-04-19 21:12 | -3.04669 | -60.31756 | 4042 ft | 246 kts | 46° |
| 2026-04-19 21:13 | -3.03912 | -60.30293 | 3953 ft | 238 kts | 75° |
| 2026-04-19 21:13 | -3.03743 | -60.28661 | 3884 ft | 229 kts | 89° |
| 2026-04-19 21:13 | -3.03779 | -60.27111 | 3790 ft | 218 kts | 90° |
| 2026-04-19 21:13 | -3.03807 | -60.25652 | 3664 ft | 208 kts | 89° |
| 2026-04-19 21:14 | -3.03818 | -60.24229 | 3536 ft | 196 kts | 89° |
| 2026-04-19 21:14 | -3.03823 | -60.22900 | 3370 ft | 189 kts | 88° |
| 2026-04-19 21:14 | -3.03825 | -60.21616 | 3162 ft | 182 kts | 89° |
| 2026-04-19 21:14 | -3.03827 | -60.20358 | 2930 ft | 179 kts | 89° |
| 2026-04-19 21:15 | -3.03829 | -60.19125 | 2688 ft | 176 kts | 88° |
| 2026-04-19 21:15 | -3.03832 | -60.17913 | 2493 ft | 174 kts | 89° |
| 2026-04-19 21:15 | -3.03835 | -60.16689 | 2261 ft | 177 kts | 89° |
| 2026-04-19 21:15 | -3.03837 | -60.15462 | 2027 ft | 174 kts | 89° |
| 2026-04-19 21:16 | -3.03840 | -60.14294 | 1818 ft | 161 kts | 88° |
| 2026-04-19 21:16 | -3.03843 | -60.13250 | 1640 ft | 144 kts | 88° |
| 2026-04-19 21:16 | -3.03843 | -60.12259 | 1423 ft | 138 kts | 88° |
| 2026-04-19 21:16 | -3.03846 | -60.11291 | 1257 ft | 140 kts | 88° |
| 2026-04-19 21:17 | -3.03847 | -60.10300 | 1071 ft | 144 kts | 89° |
| 2026-04-19 21:17 | -3.03849 | -60.09291 | 899 ft | 146 kts | 90° |
| 2026-04-19 21:17 | -3.03851 | -60.08265 | 711 ft | 149 kts | 91° |
| 2026-04-19 21:17 | -3.03856 | -60.07213 | 535 ft | 152 kts | 92° |
| 2026-04-19 21:18 | -3.03854 | -60.06156 | 320 ft | 150 kts | 93° |
| 2026-04-19 21:18 | -3.03858 | -60.05167 | 268 ft | 130 kts | 92° |
| 2026-04-19 21:18 | -3.03860 | -60.04415 | 269 ft | 86 kts | 90° |
| 2026-04-19 21:18 | -3.03862 | -60.03965 | 268 ft | 46 kts | 90° |
| 2026-04-19 21:19 | -3.03850 | -60.03809 | 267 ft | 11 kts | 64° |
| 2026-04-19 21:19 | -3.03792 | -60.03768 | 268 ft | 8 kts | 9° |
| 2026-04-19 21:19 | -3.03785 | -60.03767 | 268 ft | 0 kts | 7° |
| 2026-04-19 21:20 | -3.03783 | -60.03767 | 268 ft | 1 kts | 7° |
| 2026-04-19 21:20 | -3.03761 | -60.03766 | 268 ft | 5 kts | 354° |
| 2026-04-19 21:20 | -3.03713 | -60.03792 | 268 ft | 10 kts | 323° |
| 2026-04-19 21:20 | -3.03677 | -60.03867 | 268 ft | 14 kts | 285° |
| 2026-04-19 21:21 | -3.03651 | -60.03966 | 267 ft | 15 kts | 284° |
| 2026-04-19 21:21 | -3.03624 | -60.04064 | 267 ft | 14 kts | 285° |
| 2026-04-19 21:21 | -3.03599 | -60.04157 | 267 ft | 14 kts | 285° |
| 2026-04-19 21:21 | -3.03565 | -60.04243 | 267 ft | 13 kts | 300° |
| 2026-04-19 21:22 | -3.03510 | -60.04313 | 267 ft | 13 kts | 317° |
| 2026-04-19 21:22 | -3.03437 | -60.04360 | 267 ft | 12 kts | 335° |
| 2026-04-19 21:22 | -3.03360 | -60.04387 | 267 ft | 8 kts | 342° |
| 2026-04-19 21:22 | -3.03333 | -60.04430 | 267 ft | 8 kts | 269° |
| 2026-04-19 21:23 | -3.03328 | -60.04481 | 267 ft | 8 kts | 313° |
| 2026-04-19 21:23 | -3.03279 | -60.04495 | 267 ft | 7 kts | 349° |
| 2026-04-19 21:23 | -3.03261 | -60.04498 | 267 ft | 0 kts | 349° |